sensor_id;sensor_type;location;lat;lon;timestamp;P1;durP1;ratioP1;P2;durP2;ratioP2
35366;SDS011;21465;52.278;20.962;2023-03-14T00:00:59;4.07;;;3.08;;
35366;SDS011;21465;52.278;20.962;2023-03-14T00:03:25;3.28;;;2.65;;
35366;SDS011;21465;52.278;20.962;2023-03-14T00:05:51;12.07;;;3.30;;
35366;SDS011;21465;52.278;20.962;2023-03-14T00:08:16;2.92;;;2.72;;
35366;SDS011;21465;52.278;20.962;2023-03-14T00:10:43;3.33;;;3.08;;
35366;SDS011;21465;52.278;20.962;2023-03-14T00:13:08;3.55;;;2.95;;
35366;SDS011;21465;52.278;20.962;2023-03-14T00:15:35;3.22;;;2.92;;
35366;SDS011;21465;52.278;20.962;2023-03-14T00:18:00;3.67;;;3.38;;
35366;SDS011;21465;52.278;20.962;2023-03-14T00:20:26;3.63;;;2.97;;
35366;SDS011;21465;52.278;20.962;2023-03-14T00:22:52;3.70;;;3.00;;
35366;SDS011;21465;52.278;20.962;2023-03-14T00:25:18;3.60;;;3.20;;
35366;SDS011;21465;52.278;20.962;2023-03-14T00:27:44;3.40;;;2.72;;
35366;SDS011;21465;52.278;20.962;2023-03-14T00:30:10;3.25;;;2.75;;
35366;SDS011;21465;52.278;20.962;2023-03-14T00:32:36;3.22;;;2.88;;
35366;SDS011;21465;52.278;20.962;2023-03-14T00:35:02;4.93;;;3.30;;
35366;SDS011;21465;52.278;20.962;2023-03-14T00:37:28;3.40;;;2.85;;
35366;SDS011;21465;52.278;20.962;2023-03-14T00:39:54;3.65;;;3.33;;
35366;SDS011;21465;52.278;20.962;2023-03-14T00:42:20;4.95;;;3.53;;
35366;SDS011;21465;52.278;20.962;2023-03-14T00:44:45;3.47;;;3.17;;
35366;SDS011;21465;52.278;20.962;2023-03-14T00:47:11;3.28;;;2.80;;
35366;SDS011;21465;52.278;20.962;2023-03-14T00:49:37;3.20;;;2.90;;
35366;SDS011;21465;52.278;20.962;2023-03-14T00:52:03;4.10;;;3.45;;
35366;SDS011;21465;52.278;20.962;2023-03-14T00:54:29;3.63;;;3.15;;
35366;SDS011;21465;52.278;20.962;2023-03-14T00:56:55;3.90;;;3.53;;
35366;SDS011;21465;52.278;20.962;2023-03-14T00:59:21;3.58;;;3.00;;
35366;SDS011;21465;52.278;20.962;2023-03-14T01:01:47;4.10;;;3.17;;
35366;SDS011;21465;52.278;20.962;2023-03-14T01:04:13;3.15;;;2.85;;
35366;SDS011;21465;52.278;20.962;2023-03-14T01:06:38;3.45;;;3.10;;
35366;SDS011;21465;52.278;20.962;2023-03-14T01:09:04;4.10;;;3.10;;
35366;SDS011;21465;52.278;20.962;2023-03-14T01:11:31;2.97;;;2.78;;
35366;SDS011;21465;52.278;20.962;2023-03-14T01:13:59;3.85;;;3.42;;
35366;SDS011;21465;52.278;20.962;2023-03-14T01:16:26;4.60;;;3.60;;
35366;SDS011;21465;52.278;20.962;2023-03-14T01:18:53;4.95;;;3.60;;
35366;SDS011;21465;52.278;20.962;2023-03-14T01:21:20;3.88;;;3.47;;
35366;SDS011;21465;52.278;20.962;2023-03-14T01:23:48;3.60;;;2.90;;
35366;SDS011;21465;52.278;20.962;2023-03-14T01:26:15;3.88;;;3.08;;
35366;SDS011;21465;52.278;20.962;2023-03-14T01:31:10;4.15;;;3.20;;
35366;SDS011;21465;52.278;20.962;2023-03-14T01:33:36;3.72;;;3.10;;
35366;SDS011;21465;52.278;20.962;2023-03-14T01:36:03;3.20;;;2.90;;
35366;SDS011;21465;52.278;20.962;2023-03-14T01:38:30;4.15;;;3.67;;
35366;SDS011;21465;52.278;20.962;2023-03-14T01:40:56;3.45;;;2.95;;
35366;SDS011;21465;52.278;20.962;2023-03-14T01:43:22;4.07;;;3.40;;
35366;SDS011;21465;52.278;20.962;2023-03-14T01:48:39;3.75;;;2.97;;
35366;SDS011;21465;52.278;20.962;2023-03-14T01:51:11;4.70;;;3.35;;
35366;SDS011;21465;52.278;20.962;2023-03-14T01:53:42;3.95;;;3.28;;
35366;SDS011;21465;52.278;20.962;2023-03-14T01:56:09;3.33;;;3.00;;
35366;SDS011;21465;52.278;20.962;2023-03-14T01:58:36;3.30;;;3.00;;
35366;SDS011;21465;52.278;20.962;2023-03-14T02:01:04;4.68;;;3.38;;
35366;SDS011;21465;52.278;20.962;2023-03-14T02:03:32;4.07;;;3.28;;
35366;SDS011;21465;52.278;20.962;2023-03-14T02:06:04;2.75;;;2.53;;
35366;SDS011;21465;52.278;20.962;2023-03-14T02:08:32;3.28;;;2.83;;
35366;SDS011;21465;52.278;20.962;2023-03-14T02:10:58;3.25;;;2.80;;
35366;SDS011;21465;52.278;20.962;2023-03-14T02:13:24;3.63;;;2.83;;
35366;SDS011;21465;52.278;20.962;2023-03-14T02:15:50;4.35;;;3.28;;
35366;SDS011;21465;52.278;20.962;2023-03-14T02:18:16;3.47;;;2.22;;
35366;SDS011;21465;52.278;20.962;2023-03-14T02:20:51;3.30;;;3.00;;
35366;SDS011;21465;52.278;20.962;2023-03-14T02:26:06;3.60;;;3.30;;
35366;SDS011;21465;52.278;20.962;2023-03-14T02:28:34;3.67;;;3.00;;
35366;SDS011;21465;52.278;20.962;2023-03-14T02:31:00;3.35;;;2.70;;
35366;SDS011;21465;52.278;20.962;2023-03-14T02:33:27;3.63;;;2.92;;
35366;SDS011;21465;52.278;20.962;2023-03-14T02:35:55;3.58;;;2.70;;
35366;SDS011;21465;52.278;20.962;2023-03-14T02:40:56;5.25;;;2.80;;
35366;SDS011;21465;52.278;20.962;2023-03-14T02:43:21;3.22;;;2.92;;
35366;SDS011;21465;52.278;20.962;2023-03-14T02:45:47;2.83;;;2.53;;
35366;SDS011;21465;52.278;20.962;2023-03-14T02:48:15;3.08;;;2.78;;
35366;SDS011;21465;52.278;20.962;2023-03-14T02:50:43;2.90;;;2.70;;
35366;SDS011;21465;52.278;20.962;2023-03-14T02:53:11;3.45;;;3.15;;
35366;SDS011;21465;52.278;20.962;2023-03-14T02:55:38;3.85;;;3.10;;
35366;SDS011;21465;52.278;20.962;2023-03-14T02:58:04;2.97;;;2.78;;
35366;SDS011;21465;52.278;20.962;2023-03-14T03:00:30;2.65;;;2.45;;
35366;SDS011;21465;52.278;20.962;2023-03-14T03:02:58;3.13;;;2.67;;
35366;SDS011;21465;52.278;20.962;2023-03-14T03:05:24;3.10;;;2.80;;
35366;SDS011;21465;52.278;20.962;2023-03-14T03:07:50;2.92;;;2.60;;
35366;SDS011;21465;52.278;20.962;2023-03-14T03:10:16;3.05;;;2.63;;
35366;SDS011;21465;52.278;20.962;2023-03-14T03:12:42;3.70;;;2.63;;
35366;SDS011;21465;52.278;20.962;2023-03-14T03:15:07;3.22;;;2.80;;
35366;SDS011;21465;52.278;20.962;2023-03-14T03:17:34;3.95;;;2.80;;
35366;SDS011;21465;52.278;20.962;2023-03-14T03:19:59;2.95;;;2.65;;
35366;SDS011;21465;52.278;20.962;2023-03-14T03:22:25;2.63;;;2.42;;
35366;SDS011;21465;52.278;20.962;2023-03-14T03:24:51;2.75;;;2.30;;
35366;SDS011;21465;52.278;20.962;2023-03-14T03:27:16;3.10;;;2.50;;
35366;SDS011;21465;52.278;20.962;2023-03-14T03:29:42;2.75;;;2.50;;
35366;SDS011;21465;52.278;20.962;2023-03-14T03:32:08;2.67;;;2.47;;
35366;SDS011;21465;52.278;20.962;2023-03-14T03:34:33;2.50;;;2.30;;
35366;SDS011;21465;52.278;20.962;2023-03-14T03:37:00;2.60;;;2.10;;
35366;SDS011;21465;52.278;20.962;2023-03-14T03:39:26;2.53;;;2.33;;
35366;SDS011;21465;52.278;20.962;2023-03-14T03:41:51;3.70;;;2.65;;
35366;SDS011;21465;52.278;20.962;2023-03-14T03:44:17;2.50;;;2.30;;
35366;SDS011;21465;52.278;20.962;2023-03-14T03:46:43;2.42;;;2.22;;
35366;SDS011;21465;52.278;20.962;2023-03-14T03:49:08;2.20;;;2.00;;
35366;SDS011;21465;52.278;20.962;2023-03-14T03:51:34;2.58;;;2.30;;
35366;SDS011;21465;52.278;20.962;2023-03-14T03:54:00;2.72;;;2.47;;
35366;SDS011;21465;52.278;20.962;2023-03-14T03:56:26;2.05;;;1.85;;
35366;SDS011;21465;52.278;20.962;2023-03-14T03:58:51;2.28;;;2.10;;
35366;SDS011;21465;52.278;20.962;2023-03-14T04:01:17;2.40;;;2.20;;
35366;SDS011;21465;52.278;20.962;2023-03-14T04:03:43;2.20;;;2.00;;
35366;SDS011;21465;52.278;20.962;2023-03-14T04:09:09;3.05;;;2.53;;
35366;SDS011;21465;52.278;20.962;2023-03-14T04:11:35;3.20;;;2.00;;
35366;SDS011;21465;52.278;20.962;2023-03-14T04:14:01;3.00;;;2.65;;
35366;SDS011;21465;52.278;20.962;2023-03-14T04:16:27;2.20;;;2.00;;
35366;SDS011;21465;52.278;20.962;2023-03-14T04:18:53;2.50;;;2.22;;
35366;SDS011;21465;52.278;20.962;2023-03-14T04:21:19;3.45;;;2.42;;
35366;SDS011;21465;52.278;20.962;2023-03-14T04:23:44;2.00;;;1.75;;
35366;SDS011;21465;52.278;20.962;2023-03-14T04:26:10;2.00;;;1.90;;
35366;SDS011;21465;52.278;20.962;2023-03-14T04:28:36;3.50;;;2.30;;
35366;SDS011;21465;52.278;20.962;2023-03-14T04:31:09;2.30;;;2.08;;
35366;SDS011;21465;52.278;20.962;2023-03-14T04:33:35;2.15;;;1.95;;
35366;SDS011;21465;52.278;20.962;2023-03-14T04:36:03;3.40;;;2.88;;
35366;SDS011;21465;52.278;20.962;2023-03-14T04:38:29;3.17;;;1.90;;
35366;SDS011;21465;52.278;20.962;2023-03-14T04:40:55;2.10;;;1.90;;
35366;SDS011;21465;52.278;20.962;2023-03-14T04:43:21;4.55;;;2.38;;
35366;SDS011;21465;52.278;20.962;2023-03-14T04:45:47;2.13;;;1.60;;
35366;SDS011;21465;52.278;20.962;2023-03-14T04:48:12;3.25;;;1.75;;
35366;SDS011;21465;52.278;20.962;2023-03-14T04:50:38;2.78;;;1.80;;
35366;SDS011;21465;52.278;20.962;2023-03-14T04:53:05;2.65;;;1.90;;
35366;SDS011;21465;52.278;20.962;2023-03-14T04:55:31;1.50;;;1.40;;
35366;SDS011;21465;52.278;20.962;2023-03-14T04:57:58;2.10;;;1.90;;
35366;SDS011;21465;52.278;20.962;2023-03-14T05:00:24;2.55;;;2.15;;
35366;SDS011;21465;52.278;20.962;2023-03-14T05:02:49;5.53;;;2.10;;
35366;SDS011;21465;52.278;20.962;2023-03-14T05:05:16;2.22;;;1.95;;
35366;SDS011;21465;52.278;20.962;2023-03-14T05:07:42;2.13;;;1.85;;
35366;SDS011;21465;52.278;20.962;2023-03-14T05:10:08;2.30;;;2.10;;
35366;SDS011;21465;52.278;20.962;2023-03-14T05:12:34;2.40;;;1.90;;
35366;SDS011;21465;52.278;20.962;2023-03-14T05:15:00;3.13;;;2.08;;
35366;SDS011;21465;52.278;20.962;2023-03-14T05:17:26;3.08;;;1.95;;
35366;SDS011;21465;52.278;20.962;2023-03-14T05:19:52;1.77;;;1.42;;
35366;SDS011;21465;52.278;20.962;2023-03-14T05:22:18;2.00;;;1.80;;
35366;SDS011;21465;52.278;20.962;2023-03-14T05:24:43;1.95;;;1.67;;
35366;SDS011;21465;52.278;20.962;2023-03-14T05:27:09;1.73;;;1.48;;
35366;SDS011;21465;52.278;20.962;2023-03-14T05:29:35;1.75;;;1.60;;
35366;SDS011;21465;52.278;20.962;2023-03-14T05:32:03;4.07;;;1.95;;
35366;SDS011;21465;52.278;20.962;2023-03-14T05:34:29;2.03;;;1.48;;
35366;SDS011;21465;52.278;20.962;2023-03-14T05:36:55;2.25;;;1.90;;
35366;SDS011;21465;52.278;20.962;2023-03-14T05:39:22;2.67;;;1.90;;
35366;SDS011;21465;52.278;20.962;2023-03-14T05:41:48;2.17;;;1.65;;
35366;SDS011;21465;52.278;20.962;2023-03-14T05:44:14;1.80;;;1.27;;
35366;SDS011;21465;52.278;20.962;2023-03-14T05:46:41;2.83;;;1.70;;
35366;SDS011;21465;52.278;20.962;2023-03-14T05:49:07;1.70;;;1.60;;
35366;SDS011;21465;52.278;20.962;2023-03-14T05:51:33;2.13;;;1.65;;
35366;SDS011;21465;52.278;20.962;2023-03-14T05:53:59;1.70;;;1.55;;
35366;SDS011;21465;52.278;20.962;2023-03-14T05:56:24;2.20;;;2.00;;
35366;SDS011;21465;52.278;20.962;2023-03-14T05:58:50;2.50;;;2.10;;
35366;SDS011;21465;52.278;20.962;2023-03-14T06:01:16;2.00;;;1.80;;
35366;SDS011;21465;52.278;20.962;2023-03-14T06:03:43;2.75;;;2.25;;
35366;SDS011;21465;52.278;20.962;2023-03-14T06:06:09;1.50;;;1.40;;
35366;SDS011;21465;52.278;20.962;2023-03-14T06:08:37;3.33;;;2.30;;
35366;SDS011;21465;52.278;20.962;2023-03-14T06:11:03;3.65;;;1.75;;
35366;SDS011;21465;52.278;20.962;2023-03-14T06:13:29;2.47;;;2.00;;
35366;SDS011;21465;52.278;20.962;2023-03-14T06:15:55;1.73;;;1.63;;
35366;SDS011;21465;52.278;20.962;2023-03-14T06:18:21;2.70;;;1.80;;
35366;SDS011;21465;52.278;20.962;2023-03-14T06:20:48;2.05;;;1.60;;
35366;SDS011;21465;52.278;20.962;2023-03-14T06:23:22;1.95;;;1.55;;
35366;SDS011;21465;52.278;20.962;2023-03-14T06:25:56;1.80;;;1.67;;
35366;SDS011;21465;52.278;20.962;2023-03-14T06:28:22;3.08;;;1.60;;
35366;SDS011;21465;52.278;20.962;2023-03-14T06:30:48;2.22;;;2.03;;
35366;SDS011;21465;52.278;20.962;2023-03-14T06:33:13;3.53;;;1.90;;
35366;SDS011;21465;52.278;20.962;2023-03-14T06:35:39;3.03;;;1.73;;
35366;SDS011;21465;52.278;20.962;2023-03-14T06:38:05;2.00;;;1.80;;
35366;SDS011;21465;52.278;20.962;2023-03-14T06:40:31;2.33;;;2.00;;
35366;SDS011;21465;52.278;20.962;2023-03-14T06:42:57;2.00;;;1.80;;
35366;SDS011;21465;52.278;20.962;2023-03-14T06:45:22;2.47;;;2.13;;
35366;SDS011;21465;52.278;20.962;2023-03-14T06:47:51;2.05;;;1.92;;
35366;SDS011;21465;52.278;20.962;2023-03-14T06:50:16;2.72;;;1.55;;
35366;SDS011;21465;52.278;20.962;2023-03-14T06:52:42;1.88;;;1.70;;
35366;SDS011;21465;52.278;20.962;2023-03-14T06:57:42;4.20;;;1.90;;
35366;SDS011;21465;52.278;20.962;2023-03-14T07:00:09;2.10;;;1.55;;
35366;SDS011;21465;52.278;20.962;2023-03-14T07:02:41;6.03;;;1.90;;
35366;SDS011;21465;52.278;20.962;2023-03-14T07:05:07;2.85;;;2.08;;
35366;SDS011;21465;52.278;20.962;2023-03-14T07:07:35;1.83;;;1.65;;
35366;SDS011;21465;52.278;20.962;2023-03-14T07:10:02;2.10;;;1.80;;
35366;SDS011;21465;52.278;20.962;2023-03-14T07:12:28;2.00;;;1.80;;
35366;SDS011;21465;52.278;20.962;2023-03-14T07:14:53;2.20;;;2.00;;
35366;SDS011;21465;52.278;20.962;2023-03-14T07:17:19;2.28;;;1.98;;
35366;SDS011;21465;52.278;20.962;2023-03-14T07:19:45;4.60;;;1.80;;
35366;SDS011;21465;52.278;20.962;2023-03-14T07:22:11;2.63;;;2.28;;
35366;SDS011;21465;52.278;20.962;2023-03-14T07:24:37;1.80;;;1.70;;
35366;SDS011;21465;52.278;20.962;2023-03-14T07:27:03;5.40;;;2.72;;
35366;SDS011;21465;52.278;20.962;2023-03-14T07:29:28;2.65;;;2.42;;
35366;SDS011;21465;52.278;20.962;2023-03-14T07:31:54;5.25;;;2.50;;
35366;SDS011;21465;52.278;20.962;2023-03-14T07:34:23;2.03;;;1.92;;
35366;SDS011;21465;52.278;20.962;2023-03-14T07:36:54;3.15;;;1.92;;
35366;SDS011;21465;52.278;20.962;2023-03-14T07:39:20;4.28;;;2.58;;
35366;SDS011;21465;52.278;20.962;2023-03-14T07:41:46;3.80;;;2.20;;
35366;SDS011;21465;52.278;20.962;2023-03-14T07:44:11;5.93;;;1.92;;
35366;SDS011;21465;52.278;20.962;2023-03-14T07:46:42;2.67;;;2.40;;
35366;SDS011;21465;52.278;20.962;2023-03-14T07:49:08;3.67;;;2.33;;
35366;SDS011;21465;52.278;20.962;2023-03-14T07:51:36;2.50;;;2.30;;
35366;SDS011;21465;52.278;20.962;2023-03-14T07:54:06;2.33;;;2.13;;
35366;SDS011;21465;52.278;20.962;2023-03-14T07:56:37;3.00;;;2.20;;
35366;SDS011;21465;52.278;20.962;2023-03-14T07:59:05;4.50;;;2.92;;
35366;SDS011;21465;52.278;20.962;2023-03-14T08:01:31;2.47;;;1.98;;
35366;SDS011;21465;52.278;20.962;2023-03-14T08:03:56;2.55;;;1.98;;
35366;SDS011;21465;52.278;20.962;2023-03-14T08:06:25;2.70;;;2.13;;
35366;SDS011;21465;52.278;20.962;2023-03-14T08:08:51;2.70;;;2.00;;
35366;SDS011;21465;52.278;20.962;2023-03-14T08:11:17;3.15;;;2.42;;
35366;SDS011;21465;52.278;20.962;2023-03-14T08:13:43;2.78;;;2.13;;
35366;SDS011;21465;52.278;20.962;2023-03-14T08:16:16;2.35;;;1.95;;
35366;SDS011;21465;52.278;20.962;2023-03-14T08:18:42;2.38;;;2.10;;
35366;SDS011;21465;52.278;20.962;2023-03-14T08:21:09;2.58;;;2.00;;
35366;SDS011;21465;52.278;20.962;2023-03-14T08:23:34;2.83;;;2.00;;
35366;SDS011;21465;52.278;20.962;2023-03-14T08:26:00;3.20;;;2.08;;
35366;SDS011;21465;52.278;20.962;2023-03-14T08:28:26;2.78;;;2.42;;
35366;SDS011;21465;52.278;20.962;2023-03-14T08:30:59;4.13;;;1.98;;
35366;SDS011;21465;52.278;20.962;2023-03-14T08:33:25;1.90;;;1.65;;
35366;SDS011;21465;52.278;20.962;2023-03-14T08:35:53;3.45;;;2.30;;
35366;SDS011;21465;52.278;20.962;2023-03-14T08:38:19;1.95;;;1.75;;
35366;SDS011;21465;52.278;20.962;2023-03-14T08:40:45;2.40;;;1.80;;
35366;SDS011;21465;52.278;20.962;2023-03-14T08:43:10;1.90;;;1.73;;
35366;SDS011;21465;52.278;20.962;2023-03-14T08:45:36;2.70;;;1.70;;
35366;SDS011;21465;52.278;20.962;2023-03-14T08:48:02;1.98;;;1.70;;
35366;SDS011;21465;52.278;20.962;2023-03-14T08:50:28;2.40;;;1.80;;
35366;SDS011;21465;52.278;20.962;2023-03-14T08:52:54;2.20;;;1.95;;
35366;SDS011;21465;52.278;20.962;2023-03-14T08:55:20;2.10;;;1.70;;
35366;SDS011;21465;52.278;20.962;2023-03-14T08:57:46;2.13;;;1.92;;
35366;SDS011;21465;52.278;20.962;2023-03-14T09:00:12;2.13;;;1.83;;
35366;SDS011;21465;52.278;20.962;2023-03-14T09:02:40;1.92;;;1.83;;
35366;SDS011;21465;52.278;20.962;2023-03-14T09:05:11;1.77;;;1.65;;
35366;SDS011;21465;52.278;20.962;2023-03-14T09:07:38;2.10;;;1.80;;
35366;SDS011;21465;52.278;20.962;2023-03-14T09:10:05;2.08;;;1.73;;
35366;SDS011;21465;52.278;20.962;2023-03-14T09:12:31;1.67;;;1.58;;
35366;SDS011;21465;52.278;20.962;2023-03-14T09:14:57;2.90;;;1.83;;
35366;SDS011;21465;52.278;20.962;2023-03-14T09:17:23;2.20;;;2.00;;
35366;SDS011;21465;52.278;20.962;2023-03-14T09:19:50;3.20;;;2.20;;
35366;SDS011;21465;52.278;20.962;2023-03-14T09:22:15;2.15;;;1.95;;
35366;SDS011;21465;52.278;20.962;2023-03-14T09:24:41;2.20;;;1.80;;
35366;SDS011;21465;52.278;20.962;2023-03-14T09:27:07;4.75;;;2.00;;
35366;SDS011;21465;52.278;20.962;2023-03-14T09:29:33;1.63;;;1.50;;
35366;SDS011;21465;52.278;20.962;2023-03-14T09:31:59;3.13;;;1.98;;
35366;SDS011;21465;52.278;20.962;2023-03-14T09:34:25;2.13;;;1.55;;
35366;SDS011;21465;52.278;20.962;2023-03-14T09:36:51;2.85;;;1.80;;
35366;SDS011;21465;52.278;20.962;2023-03-14T09:39:17;1.92;;;1.42;;
35366;SDS011;21465;52.278;20.962;2023-03-14T09:41:43;2.90;;;1.98;;
35366;SDS011;21465;52.278;20.962;2023-03-14T09:44:23;3.23;;;2.00;;
35366;SDS011;21465;52.278;20.962;2023-03-14T09:46:51;1.83;;;1.70;;
35366;SDS011;21465;52.278;20.962;2023-03-14T09:49:20;3.72;;;1.80;;
35366;SDS011;21465;52.278;20.962;2023-03-14T09:51:47;1.95;;;1.60;;
35366;SDS011;21465;52.278;20.962;2023-03-14T09:57:05;2.08;;;1.55;;
35366;SDS011;21465;52.278;20.962;2023-03-14T09:59:32;1.63;;;1.33;;
35366;SDS011;21465;52.278;20.962;2023-03-14T10:02:10;1.60;;;1.50;;
35366;SDS011;21465;52.278;20.962;2023-03-14T10:04:40;1.83;;;1.70;;
35366;SDS011;21465;52.278;20.962;2023-03-14T10:07:11;3.53;;;1.55;;
35366;SDS011;21465;52.278;20.962;2023-03-14T10:09:42;2.95;;;1.52;;
35366;SDS011;21465;52.278;20.962;2023-03-14T10:12:08;2.03;;;1.80;;
35366;SDS011;21465;52.278;20.962;2023-03-14T10:14:36;2.90;;;1.77;;
35366;SDS011;21465;52.278;20.962;2023-03-14T10:17:10;1.58;;;1.45;;
35366;SDS011;21465;52.278;20.962;2023-03-14T10:19:50;1.58;;;1.42;;
35366;SDS011;21465;52.278;20.962;2023-03-14T10:22:24;1.77;;;1.30;;
35366;SDS011;21465;52.278;20.962;2023-03-14T10:24:54;3.28;;;1.70;;
35366;SDS011;21465;52.278;20.962;2023-03-14T10:27:26;2.60;;;2.00;;
35366;SDS011;21465;52.278;20.962;2023-03-14T10:29:59;1.63;;;1.50;;
35366;SDS011;21465;52.278;20.962;2023-03-14T10:32:32;2.13;;;1.48;;
35366;SDS011;21465;52.278;20.962;2023-03-14T10:35:07;2.05;;;1.40;;
35366;SDS011;21465;52.278;20.962;2023-03-14T10:37:36;1.60;;;1.50;;
35366;SDS011;21465;52.278;20.962;2023-03-14T10:40:14;2.60;;;1.52;;
35366;SDS011;21465;52.278;20.962;2023-03-14T10:42:41;1.70;;;1.60;;
35366;SDS011;21465;52.278;20.962;2023-03-14T10:45:25;1.52;;;1.38;;
35366;SDS011;21465;52.278;20.962;2023-03-14T10:47:56;2.45;;;1.33;;
35366;SDS011;21465;52.278;20.962;2023-03-14T10:50:57;1.63;;;1.50;;
35366;SDS011;21465;52.278;20.962;2023-03-14T10:54:19;2.80;;;1.73;;
35366;SDS011;21465;52.278;20.962;2023-03-14T10:56:27;1.88;;;1.50;;
35366;SDS011;21465;52.278;20.962;2023-03-14T10:58:59;3.30;;;2.10;;
35366;SDS011;21465;52.278;20.962;2023-03-14T11:07:06;2.22;;;1.80;;
35366;SDS011;21465;52.278;20.962;2023-03-14T11:12:30;3.05;;;1.70;;
35366;SDS011;21465;52.278;20.962;2023-03-14T11:15:01;3.15;;;1.60;;
35366;SDS011;21465;52.278;20.962;2023-03-14T11:17:43;2.50;;;1.38;;
35366;SDS011;21465;52.278;20.962;2023-03-14T11:23:32;1.67;;;1.55;;
35366;SDS011;21465;52.278;20.962;2023-03-14T11:28:46;2.37;;;1.70;;
35366;SDS011;21465;52.278;20.962;2023-03-14T11:31:26;3.55;;;1.80;;
35366;SDS011;21465;52.278;20.962;2023-03-14T11:39:40;3.15;;;1.50;;
35366;SDS011;21465;52.278;20.962;2023-03-14T11:42:17;3.55;;;2.13;;
35366;SDS011;21465;52.278;20.962;2023-03-14T11:44:44;1.95;;;1.75;;
35366;SDS011;21465;52.278;20.962;2023-03-14T11:47:13;2.75;;;1.70;;
35366;SDS011;21465;52.278;20.962;2023-03-14T11:49:48;2.45;;;1.88;;
35366;SDS011;21465;52.278;20.962;2023-03-14T11:52:20;2.58;;;1.92;;
35366;SDS011;21465;52.278;20.962;2023-03-14T11:57:35;2.25;;;1.63;;
35366;SDS011;21465;52.278;20.962;2023-03-14T12:05:39;1.85;;;1.73;;
35366;SDS011;21465;52.278;20.962;2023-03-14T12:08:19;3.13;;;1.77;;
35366;SDS011;21465;52.278;20.962;2023-03-14T12:10:51;2.50;;;1.88;;
35366;SDS011;21465;52.278;20.962;2023-03-14T12:13:22;2.72;;;1.90;;
35366;SDS011;21465;52.278;20.962;2023-03-14T12:16:06;2.45;;;1.90;;
35366;SDS011;21465;52.278;20.962;2023-03-14T12:18:43;3.00;;;2.22;;
35366;SDS011;21465;52.278;20.962;2023-03-14T12:21:10;2.13;;;1.90;;
35366;SDS011;21465;52.278;20.962;2023-03-14T12:23:45;3.03;;;1.90;;
35366;SDS011;21465;52.278;20.962;2023-03-14T12:26:16;2.30;;;2.08;;
35366;SDS011;21465;52.278;20.962;2023-03-14T12:28:48;2.85;;;2.25;;
35366;SDS011;21465;52.278;20.962;2023-03-14T12:31:38;2.53;;;2.05;;
35366;SDS011;21465;52.278;20.962;2023-03-14T12:46:58;5.60;;;2.40;;
35366;SDS011;21465;52.278;20.962;2023-03-14T12:49:31;3.55;;;2.78;;
35366;SDS011;21465;52.278;20.962;2023-03-14T12:52:01;3.78;;;2.90;;
35366;SDS011;21465;52.278;20.962;2023-03-14T12:57:33;5.22;;;2.70;;
35366;SDS011;21465;52.278;20.962;2023-03-14T13:02:44;2.50;;;2.28;;
35366;SDS011;21465;52.278;20.962;2023-03-14T13:05:16;3.15;;;2.35;;
35366;SDS011;21465;52.278;20.962;2023-03-14T13:10:22;2.97;;;2.58;;
35366;SDS011;21465;52.278;20.962;2023-03-14T13:12:50;3.78;;;2.65;;
35366;SDS011;21465;52.278;20.962;2023-03-14T13:15:30;2.55;;;2.20;;
35366;SDS011;21465;52.278;20.962;2023-03-14T13:18:02;4.30;;;2.83;;
35366;SDS011;21465;52.278;20.962;2023-03-14T13:20:53;4.00;;;2.60;;
35366;SDS011;21465;52.278;20.962;2023-03-14T13:23:25;5.13;;;3.03;;
35366;SDS011;21465;52.278;20.962;2023-03-14T13:25:52;3.25;;;2.95;;
35366;SDS011;21465;52.278;20.962;2023-03-14T13:28:18;3.17;;;2.47;;
35366;SDS011;21465;52.278;20.962;2023-03-14T13:30:45;2.75;;;2.55;;
35366;SDS011;21465;52.278;20.962;2023-03-14T13:33:16;5.55;;;2.88;;
35366;SDS011;21465;52.278;20.962;2023-03-14T13:35:49;3.45;;;2.53;;
35366;SDS011;21465;52.278;20.962;2023-03-14T13:38:26;3.03;;;2.55;;
35366;SDS011;21465;52.278;20.962;2023-03-14T13:40:54;3.38;;;2.65;;
35366;SDS011;21465;52.278;20.962;2023-03-14T13:43:40;3.22;;;2.47;;
35366;SDS011;21465;52.278;20.962;2023-03-14T13:48:55;4.18;;;2.80;;
35366;SDS011;21465;52.278;20.962;2023-03-14T13:51:22;5.50;;;3.22;;
35366;SDS011;21465;52.278;20.962;2023-03-14T13:53:54;3.47;;;2.58;;
35366;SDS011;21465;52.278;20.962;2023-03-14T13:58:50;3.55;;;2.78;;
35366;SDS011;21465;52.278;20.962;2023-03-14T14:01:20;2.60;;;2.17;;
35366;SDS011;21465;52.278;20.962;2023-03-14T14:03:55;3.28;;;2.70;;
35366;SDS011;21465;52.278;20.962;2023-03-14T14:06:35;4.90;;;3.00;;
35366;SDS011;21465;52.278;20.962;2023-03-14T14:09:04;3.55;;;3.05;;
35366;SDS011;21465;52.278;20.962;2023-03-14T14:11:46;3.78;;;3.35;;
35366;SDS011;21465;52.278;20.962;2023-03-14T14:16:54;3.67;;;2.85;;
35366;SDS011;21465;52.278;20.962;2023-03-14T14:19:25;3.20;;;2.90;;
35366;SDS011;21465;52.278;20.962;2023-03-14T14:21:53;2.92;;;2.63;;
35366;SDS011;21465;52.278;20.962;2023-03-14T14:24:20;4.90;;;3.40;;
35366;SDS011;21465;52.278;20.962;2023-03-14T14:26:51;4.18;;;2.85;;
35366;SDS011;21465;52.278;20.962;2023-03-14T14:29:30;5.03;;;3.15;;
35366;SDS011;21465;52.278;20.962;2023-03-14T14:32:08;5.57;;;3.33;;
35366;SDS011;21465;52.278;20.962;2023-03-14T14:37:15;5.50;;;3.67;;
35366;SDS011;21465;52.278;20.962;2023-03-14T14:39:46;8.27;;;3.53;;
35366;SDS011;21465;52.278;20.962;2023-03-14T14:42:15;6.55;;;3.85;;
35366;SDS011;21465;52.278;20.962;2023-03-14T14:47:11;5.57;;;3.83;;
35366;SDS011;21465;52.278;20.962;2023-03-14T14:52:12;3.47;;;2.97;;
35366;SDS011;21465;52.278;20.962;2023-03-14T14:54:53;3.72;;;2.97;;
35366;SDS011;21465;52.278;20.962;2023-03-14T14:57:23;3.80;;;3.35;;
35366;SDS011;21465;52.278;20.962;2023-03-14T15:00:00;4.13;;;3.33;;
35366;SDS011;21465;52.278;20.962;2023-03-14T15:02:36;4.88;;;3.10;;
35366;SDS011;21465;52.278;20.962;2023-03-14T15:07:39;3.38;;;2.80;;
35366;SDS011;21465;52.278;20.962;2023-03-14T15:10:05;3.45;;;2.67;;
35366;SDS011;21465;52.278;20.962;2023-03-14T15:12:31;2.75;;;2.35;;
35366;SDS011;21465;52.278;20.962;2023-03-14T15:14:58;2.85;;;2.50;;
35366;SDS011;21465;52.278;20.962;2023-03-14T15:17:23;2.33;;;2.13;;
35366;SDS011;21465;52.278;20.962;2023-03-14T15:19:49;2.95;;;2.35;;
35366;SDS011;21465;52.278;20.962;2023-03-14T15:22:16;3.45;;;2.80;;
35366;SDS011;21465;52.278;20.962;2023-03-14T15:24:45;4.38;;;2.55;;
35366;SDS011;21465;52.278;20.962;2023-03-14T15:27:13;4.97;;;2.63;;
35366;SDS011;21465;52.278;20.962;2023-03-14T15:29:40;3.30;;;2.65;;
35366;SDS011;21465;52.278;20.962;2023-03-14T15:32:11;3.25;;;2.63;;
35366;SDS011;21465;52.278;20.962;2023-03-14T15:34:42;3.20;;;2.45;;
35366;SDS011;21465;52.278;20.962;2023-03-14T15:37:14;2.80;;;2.55;;
35366;SDS011;21465;52.278;20.962;2023-03-14T15:39:43;2.92;;;2.17;;
35366;SDS011;21465;52.278;20.962;2023-03-14T15:42:13;3.25;;;2.38;;
35366;SDS011;21465;52.278;20.962;2023-03-14T15:44:48;2.97;;;2.22;;
35366;SDS011;21465;52.278;20.962;2023-03-14T15:47:43;3.28;;;2.90;;
35366;SDS011;21465;52.278;20.962;2023-03-14T15:50:09;3.90;;;2.97;;
35366;SDS011;21465;52.278;20.962;2023-03-14T15:52:37;3.65;;;2.83;;
35366;SDS011;21465;52.278;20.962;2023-03-14T15:57:38;3.40;;;2.55;;
35366;SDS011;21465;52.278;20.962;2023-03-14T16:00:04;2.80;;;2.53;;
35366;SDS011;21465;52.278;20.962;2023-03-14T16:02:35;2.95;;;2.50;;
35366;SDS011;21465;52.278;20.962;2023-03-14T16:05:05;4.47;;;2.97;;
35366;SDS011;21465;52.278;20.962;2023-03-14T16:07:31;3.75;;;3.22;;
35366;SDS011;21465;52.278;20.962;2023-03-14T16:10:01;3.40;;;3.10;;